createdAt,value
2019-02-18T00:00:41.993Z,11.50
2019-02-18T00:03:10.895Z,11.38
2019-02-18T00:05:39.723Z,11.90
2019-02-18T00:08:08.454Z,14.58
2019-02-18T00:10:37.220Z,8.85
2019-02-18T00:13:06.018Z,10.28
2019-02-18T00:15:34.796Z,10.48
2019-02-18T00:18:03.624Z,12.75
2019-02-18T00:20:32.399Z,10.63
2019-02-18T00:23:01.176Z,13.13
2019-02-18T00:25:29.911Z,9.70
2019-02-18T00:27:58.681Z,13.80
2019-02-18T00:30:27.408Z,9.20
2019-02-18T00:32:56.170Z,9.33
2019-02-18T00:35:25.024Z,8.85
2019-02-18T00:37:54.939Z,9.20
2019-02-18T00:40:23.685Z,7.92
2019-02-18T00:42:52.440Z,7.62
2019-02-18T00:45:21.263Z,6.75
2019-02-18T00:47:50.085Z,8.20
2019-02-18T00:50:18.827Z,5.58
2019-02-18T00:52:47.588Z,8.75
2019-02-18T00:55:16.413Z,7.90
2019-02-18T00:57:45.168Z,8.10
2019-02-18T01:00:18.494Z,5.97
2019-02-18T01:02:47.258Z,4.92
2019-02-18T01:05:15.987Z,5.83
2019-02-18T01:07:44.959Z,5.00
2019-02-18T01:10:13.748Z,4.90
2019-02-18T01:12:42.574Z,6.45
2019-02-18T01:15:15.661Z,5.85
2019-02-18T01:17:44.423Z,6.83
2019-02-18T01:20:15.148Z,5.50
2019-02-18T01:22:43.886Z,5.40
2019-02-18T01:25:13.650Z,5.53
2019-02-18T01:27:42.390Z,5.17
2019-02-18T01:30:17.198Z,5.78
2019-02-18T01:32:45.933Z,5.65
2019-02-18T01:35:14.700Z,4.60
2019-02-18T01:37:46.076Z,6.92
2019-02-18T01:40:14.606Z,5.50
2019-02-18T01:42:43.455Z,5.60
2019-02-18T01:45:15.305Z,4.47
2019-02-18T01:47:44.096Z,4.87
2019-02-18T01:50:14.664Z,4.12
2019-02-18T01:52:43.401Z,4.80
2019-02-18T01:55:13.636Z,5.75
2019-02-18T01:57:42.397Z,4.60
2019-02-18T02:00:13.805Z,4.78
2019-02-18T02:02:42.577Z,4.70
2019-02-18T02:05:12.997Z,4.78
2019-02-18T02:07:41.816Z,4.35
2019-02-18T02:10:12.625Z,4.42
2019-02-18T02:12:41.385Z,4.75
2019-02-18T02:15:22.988Z,3.83
2019-02-18T02:17:51.746Z,3.52
2019-02-18T02:20:20.477Z,3.85
2019-02-18T02:22:49.241Z,5.08
2019-02-18T02:25:17.985Z,2.92
2019-02-18T02:27:46.770Z,2.80
2019-02-18T02:30:15.497Z,3.67
2019-02-18T02:32:44.334Z,4.30
2019-02-18T02:35:13.070Z,3.90
2019-02-18T02:37:41.833Z,7.47
2019-02-18T02:40:12.574Z,6.95
2019-02-18T02:42:41.362Z,8.45
2019-02-18T02:45:10.094Z,4.97
2019-02-18T02:47:38.862Z,8.53
2019-02-18T02:50:08.227Z,4.85
2019-02-18T02:52:37.132Z,7.70
2019-02-18T02:55:06.709Z,5.42
2019-02-18T02:57:35.445Z,5.95
2019-02-18T03:00:07.226Z,5.87
2019-02-18T03:02:35.962Z,7.47
2019-02-18T03:05:05.338Z,5.58
2019-02-18T03:07:34.069Z,5.55
2019-02-18T03:10:03.236Z,5.42
2019-02-18T03:12:31.970Z,5.95
2019-02-18T03:15:00.742Z,4.97
2019-02-18T03:17:29.473Z,7.70
2019-02-18T03:19:58.244Z,5.30
2019-02-18T03:22:26.988Z,4.50
2019-02-18T03:25:17.642Z,2.93
2019-02-18T03:27:46.474Z,5.65
2019-02-18T03:30:42.659Z,5.50
2019-02-18T03:33:14.424Z,5.33
2019-02-18T03:35:43.192Z,3.90
2019-02-18T03:38:11.996Z,3.47
2019-02-18T03:40:40.769Z,3.65
2019-02-18T03:43:09.505Z,6.55
2019-02-18T03:45:38.277Z,3.72
2019-02-18T03:48:07.167Z,4.45
2019-02-18T03:50:35.936Z,3.42
2019-02-18T03:53:04.667Z,4.10
2019-02-18T03:55:33.410Z,4.35
2019-02-18T03:58:02.184Z,3.83
2019-02-18T04:00:30.913Z,4.87
2019-02-18T04:02:59.885Z,3.80
2019-02-18T04:05:28.689Z,4.50
2019-02-18T04:07:57.448Z,2.65
2019-02-18T04:10:26.198Z,2.72
2019-02-18T04:12:55.029Z,2.40
2019-02-18T04:15:23.841Z,3.47
2019-02-18T04:17:52.637Z,2.52
2019-02-18T04:20:21.468Z,3.08
2019-02-18T04:22:50.229Z,3.50
2019-02-18T04:25:18.962Z,3.12
2019-02-18T04:27:47.734Z,3.10
2019-02-18T04:30:16.538Z,3.30
2019-02-18T04:32:45.264Z,2.85
2019-02-18T04:35:14.026Z,4.67
2019-02-18T04:37:42.765Z,3.62
2019-02-18T04:40:11.521Z,3.00
2019-02-18T04:42:40.258Z,5.05
2019-02-18T04:45:10.596Z,4.67
2019-02-18T04:47:39.343Z,2.95
2019-02-18T04:50:09.098Z,4.83
2019-02-18T04:52:37.839Z,4.78
2019-02-18T04:55:11.192Z,4.17
2019-02-18T04:57:39.925Z,3.67
2019-02-18T05:00:10.429Z,3.77
2019-02-18T05:02:39.193Z,3.23
2019-02-18T05:05:09.677Z,3.60
2019-02-18T05:07:38.399Z,5.05
2019-02-18T05:10:11.889Z,2.93
2019-02-18T05:12:40.630Z,3.70
2019-02-18T05:15:09.791Z,4.33
2019-02-18T05:17:38.531Z,4.17
2019-02-18T05:20:08.598Z,3.67
2019-02-18T05:22:37.377Z,4.25
2019-02-18T05:25:08.016Z,4.80
2019-02-18T05:27:36.783Z,6.47
2019-02-18T05:30:08.282Z,6.03
2019-02-18T05:32:37.049Z,5.62
2019-02-18T05:35:07.487Z,10.88
2019-02-18T05:37:36.406Z,5.05
2019-02-18T05:40:06.983Z,9.65
2019-02-18T05:42:35.766Z,6.65
2019-02-18T05:45:06.339Z,6.72
2019-02-18T05:47:35.065Z,6.85
2019-02-18T05:50:04.013Z,7.30
2019-02-18T05:52:32.862Z,9.03
2019-02-18T05:55:01.606Z,9.43
2019-02-18T05:57:30.370Z,11.55
2019-02-18T05:59:59.110Z,7.00
2019-02-18T06:02:27.919Z,10.03
2019-02-18T06:04:56.667Z,9.13
2019-02-18T06:07:25.489Z,4.30
2019-02-18T06:09:54.524Z,7.65
2019-02-18T06:12:23.511Z,6.42
2019-02-18T06:14:52.265Z,6.67
2019-02-18T06:17:21.082Z,6.03
2019-02-18T06:19:49.845Z,6.15
2019-02-18T06:22:18.685Z,6.80
2019-02-18T06:24:47.458Z,6.87
2019-02-18T06:27:18.077Z,7.15
2019-02-18T06:29:46.821Z,7.95
2019-02-18T06:32:15.703Z,8.20
2019-02-18T06:34:44.453Z,6.60
2019-02-18T06:37:13.265Z,8.13
2019-02-18T06:39:42.204Z,12.05
2019-02-18T06:42:11.322Z,10.85
2019-02-18T06:44:41.777Z,6.70
2019-02-18T06:47:10.892Z,12.82
2019-02-18T06:49:39.656Z,6.10
2019-02-18T06:52:08.425Z,9.43
2019-02-18T06:54:37.162Z,8.80
2019-02-18T06:57:07.560Z,8.08
2019-02-18T06:59:37.951Z,10.53
2019-02-18T07:02:11.569Z,10.68
2019-02-18T07:05:00.303Z,11.73
2019-02-18T07:07:30.721Z,7.08
2019-02-18T07:10:01.237Z,14.47
2019-02-18T07:12:34.577Z,14.50
2019-02-18T07:15:03.408Z,8.60
2019-02-18T07:17:32.197Z,10.35
2019-02-18T07:20:01.004Z,10.80
2019-02-18T07:22:29.765Z,11.97
2019-02-18T07:24:58.507Z,10.80
2019-02-18T07:27:27.278Z,10.75
2019-02-18T07:29:56.109Z,13.32
2019-02-18T07:32:24.872Z,10.50
2019-02-18T07:34:53.610Z,12.07
2019-02-18T07:37:22.401Z,11.60
2019-02-18T07:40:00.853Z,11.60
2019-02-18T07:42:21.551Z,9.78
2019-02-18T07:44:50.293Z,11.00
2019-02-18T07:47:19.058Z,8.48
2019-02-18T07:49:47.872Z,11.20
2019-02-18T07:52:16.629Z,13.88
2019-02-18T07:54:45.488Z,7.00
2019-02-18T07:57:14.201Z,12.73
2019-02-18T07:59:42.981Z,9.03
2019-02-18T08:02:11.853Z,9.00
2019-02-18T08:04:40.616Z,7.70
2019-02-18T08:07:09.541Z,10.78
2019-02-18T08:09:38.385Z,10.82
2019-02-18T08:12:07.116Z,7.15
2019-02-18T08:14:35.884Z,14.38
2019-02-18T08:17:04.786Z,10.72
2019-02-18T08:19:33.486Z,10.25
2019-02-18T08:22:02.288Z,10.03
2019-02-18T08:24:31.100Z,7.15
2019-02-18T08:26:59.862Z,11.05
2019-02-18T08:29:28.626Z,9.98
2019-02-18T08:31:57.445Z,8.13
2019-02-18T08:34:26.262Z,6.30
2019-02-18T08:36:54.999Z,7.05
2019-02-18T08:39:23.765Z,7.85
2019-02-18T08:41:52.593Z,7.95
2019-02-18T08:44:21.370Z,5.62
2019-02-18T08:46:50.088Z,5.78
2019-02-18T08:49:18.885Z,7.35
2019-02-18T08:51:47.653Z,9.70
2019-02-18T08:54:16.416Z,8.00
2019-02-18T08:56:45.185Z,8.18
2019-02-18T08:59:14.006Z,5.28
2019-02-18T09:01:42.762Z,7.97
2019-02-18T09:04:11.553Z,5.95
2019-02-18T09:06:40.401Z,9.70
2019-02-18T09:09:09.261Z,8.83
2019-02-18T09:11:38.029Z,9.03
2019-02-18T09:14:06.834Z,10.18
2019-02-18T09:16:35.589Z,8.23
2019-02-18T09:19:04.313Z,8.93
2019-02-18T09:21:34.450Z,8.08
2019-02-18T09:24:21.349Z,8.23
2019-02-18T09:26:50.172Z,7.28
2019-02-18T09:29:18.984Z,7.70
2019-02-18T09:31:47.818Z,6.12
2019-02-18T09:34:16.549Z,6.97
2019-02-18T09:36:45.308Z,9.70
2019-02-18T09:39:30.060Z,6.75
2019-02-18T09:41:49.248Z,5.53
2019-02-18T09:44:17.990Z,6.75
2019-02-18T09:46:46.814Z,5.75
2019-02-18T09:49:15.545Z,8.05
2019-02-18T09:51:44.455Z,5.50
2019-02-18T09:54:13.379Z,3.90
2019-02-18T09:56:42.175Z,4.10
2019-02-18T09:59:10.929Z,7.17
2019-02-18T10:01:39.762Z,3.05
2019-02-18T10:04:08.493Z,3.90
2019-02-18T10:06:37.282Z,6.97
2019-02-18T10:09:06.546Z,4.90
2019-02-18T10:11:35.369Z,8.30
2019-02-18T10:14:04.221Z,6.20
2019-02-18T10:16:33.045Z,4.87
2019-02-18T10:19:01.801Z,6.80
2019-02-18T10:21:30.529Z,5.62
2019-02-18T10:23:59.347Z,7.50
2019-02-18T10:26:28.093Z,8.53
2019-02-18T10:28:56.862Z,9.15
2019-02-18T10:31:25.592Z,6.05
2019-02-18T10:33:54.352Z,6.87
2019-02-18T10:36:23.203Z,6.72
2019-02-18T10:38:51.918Z,8.13
2019-02-18T10:41:20.764Z,5.35
2019-02-18T10:43:49.545Z,5.58
2019-02-18T10:46:18.309Z,6.72
2019-02-18T10:48:47.225Z,4.70
2019-02-18T10:51:16.020Z,5.25
2019-02-18T10:53:44.866Z,3.98
2019-02-18T10:56:13.625Z,4.58
2019-02-18T10:58:42.441Z,5.97
2019-02-18T11:01:11.241Z,5.60
2019-02-18T11:03:40.050Z,6.40
2019-02-18T11:06:09.417Z,4.83
2019-02-18T11:08:38.236Z,5.00
2019-02-18T11:11:16.435Z,3.50
2019-02-18T11:13:37.803Z,5.72
2019-02-18T11:16:06.653Z,3.95
2019-02-18T11:18:35.385Z,5.62
2019-02-18T11:21:04.116Z,4.72
2019-02-18T11:23:32.914Z,3.77
2019-02-18T11:26:02.026Z,3.43
2019-02-18T11:28:30.865Z,4.00
2019-02-18T11:30:59.654Z,3.95
2019-02-18T11:33:28.413Z,3.63
2019-02-18T11:35:57.158Z,5.25
2019-02-18T11:38:25.922Z,2.67
2019-02-18T11:40:54.658Z,7.15
2019-02-18T11:43:23.417Z,3.58
2019-02-18T11:45:52.141Z,5.00
2019-02-18T11:48:20.901Z,3.65
2019-02-18T11:50:49.941Z,4.08
2019-02-18T11:53:18.798Z,4.05
2019-02-18T11:55:47.636Z,6.95
2019-02-18T11:58:16.398Z,5.83
2019-02-18T12:00:45.379Z,4.33
2019-02-18T12:03:14.867Z,7.37
2019-02-18T12:05:44.004Z,7.00
2019-02-18T12:08:13.163Z,5.28
2019-02-18T12:10:42.689Z,6.90
2019-02-18T12:13:13.105Z,4.67
2019-02-18T12:15:42.565Z,6.67
2019-02-18T12:18:13.677Z,5.75
2019-02-18T12:20:41.821Z,4.12
2019-02-18T12:23:10.653Z,7.17
2019-02-18T12:25:39.407Z,5.43
2019-02-18T12:28:08.158Z,6.40
2019-02-18T12:30:37.013Z,7.95
2019-02-18T12:33:05.826Z,6.00
2019-02-18T12:35:34.587Z,10.78
2019-02-18T12:38:03.997Z,7.00
2019-02-18T12:40:32.766Z,5.97
2019-02-18T12:43:01.568Z,7.62
2019-02-18T12:45:30.497Z,7.20
2019-02-18T12:47:59.229Z,8.10
2019-02-18T12:50:27.993Z,7.28
2019-02-18T12:52:57.025Z,9.30
2019-02-18T12:55:25.842Z,10.80
2019-02-18T12:57:54.808Z,7.35
2019-02-18T13:00:23.637Z,14.43
2019-02-18T13:02:52.440Z,7.78
2019-02-18T13:05:21.305Z,13.78
2019-02-18T13:07:50.073Z,12.15
2019-02-18T13:10:18.810Z,9.88
2019-02-18T13:12:47.573Z,8.90
2019-02-18T13:15:19.285Z,10.28
2019-02-18T13:17:48.244Z,8.90
2019-02-18T13:20:17.077Z,8.58
2019-02-18T13:22:45.861Z,12.20
2019-02-18T13:25:14.596Z,9.13
2019-02-18T13:27:43.441Z,11.95
2019-02-18T13:30:20.300Z,8.15
2019-02-18T13:32:49.061Z,9.38
2019-02-18T13:35:17.898Z,9.13
2019-02-18T13:37:46.665Z,9.50
2019-02-18T13:40:16.793Z,8.75
2019-02-18T13:42:46.026Z,9.83
2019-02-18T13:45:14.777Z,7.17
2019-02-18T13:47:43.550Z,9.80
2019-02-18T13:50:13.392Z,11.15
2019-02-18T13:52:42.202Z,9.95
2019-02-18T13:55:12.141Z,9.40
2019-02-18T13:57:41.381Z,10.25
2019-02-18T14:00:19.886Z,8.25
2019-02-18T14:02:49.784Z,9.18
2019-02-18T14:05:20.277Z,10.98
2019-02-18T14:07:49.108Z,9.58
2019-02-18T14:10:18.453Z,7.75
2019-02-18T14:12:47.174Z,6.40
2019-02-18T14:15:17.216Z,7.62
2019-02-18T14:17:46.054Z,7.30
2019-02-18T14:20:16.521Z,8.38
2019-02-18T14:22:45.258Z,6.42
2019-02-18T14:25:14.925Z,9.08
2019-02-18T14:27:43.661Z,10.58
2019-02-18T14:30:17.361Z,5.47
2019-02-18T14:32:46.218Z,9.78
2019-02-18T14:35:17.477Z,7.10
2019-02-18T14:37:46.703Z,8.90
2019-02-18T14:40:17.887Z,8.40
2019-02-18T14:42:46.650Z,8.10
2019-02-18T14:45:15.952Z,5.65
2019-02-18T14:47:46.552Z,6.33
2019-02-18T14:50:17.516Z,7.70
2019-02-18T14:52:46.881Z,8.43
2019-02-18T14:55:15.916Z,7.10
2019-02-18T14:57:45.486Z,6.95
2019-02-18T15:00:23.039Z,8.25
2019-02-18T15:02:53.540Z,10.05
2019-02-18T15:05:22.746Z,8.30
2019-02-18T15:07:51.526Z,7.62
2019-02-18T15:10:20.326Z,9.18
2019-02-18T15:12:49.180Z,8.10
2019-02-18T15:15:18.193Z,7.77
2019-02-18T15:17:47.033Z,10.58
2019-02-18T15:20:15.797Z,9.15
2019-02-18T15:22:44.528Z,9.78
2019-02-18T15:25:13.436Z,9.58
2019-02-18T15:27:42.240Z,6.85
2019-02-18T15:30:14.157Z,9.50
2019-02-18T15:32:42.908Z,7.42
2019-02-18T15:35:11.768Z,8.25
2019-02-18T15:37:40.514Z,6.90
2019-02-18T15:40:11.644Z,5.67
2019-02-18T15:42:42.594Z,7.75
2019-02-18T15:45:11.014Z,7.42
2019-02-18T15:47:40.843Z,6.67
2019-02-18T15:50:12.188Z,9.95
2019-02-18T15:52:41.012Z,8.27
2019-02-18T15:55:10.976Z,7.35
2019-02-18T15:57:39.728Z,6.40
2019-02-18T16:00:20.525Z,6.12
2019-02-18T16:02:49.558Z,6.67
2019-02-18T16:05:18.319Z,3.85
2019-02-18T16:07:47.122Z,5.50
2019-02-18T16:10:15.884Z,6.33
2019-02-18T16:12:50.529Z,4.92
2019-02-18T16:15:15.234Z,6.10
2019-02-18T16:17:44.348Z,4.85
2019-02-18T16:20:14.296Z,7.55
2019-02-18T16:22:43.058Z,7.30
2019-02-18T16:25:20.585Z,8.90
2019-02-18T16:27:49.317Z,11.77
2019-02-18T16:30:18.263Z,7.50
2019-02-18T16:32:47.153Z,7.90
2019-02-18T16:35:15.885Z,7.53
2019-02-18T16:37:44.676Z,8.20
2019-02-18T16:40:16.035Z,7.07
2019-02-18T16:42:44.769Z,6.78
2019-02-18T16:45:15.073Z,7.03
2019-02-18T16:47:43.978Z,7.85
2019-02-18T16:50:13.305Z,7.85
2019-02-18T16:52:42.103Z,7.55
2019-02-18T16:55:12.905Z,7.58
2019-02-18T16:57:41.665Z,9.17
2019-02-18T17:00:20.793Z,7.33
2019-02-18T17:02:50.941Z,5.75
2019-02-18T17:05:19.898Z,6.28
2019-02-18T17:07:48.625Z,8.70
2019-02-18T17:10:17.381Z,7.45
2019-02-18T17:12:46.589Z,5.28
2019-02-18T17:15:15.351Z,7.83
2019-02-18T17:17:44.077Z,6.53
2019-02-18T17:20:12.869Z,6.20
2019-02-18T17:22:41.596Z,6.92
2019-02-18T17:25:11.888Z,5.60
2019-02-18T17:27:40.629Z,8.20
2019-02-18T17:30:12.381Z,5.65
2019-02-18T17:32:41.104Z,5.53
2019-02-18T17:35:12.194Z,7.77
2019-02-18T17:37:40.986Z,6.28
2019-02-18T17:40:14.451Z,7.40
2019-02-18T17:42:43.497Z,5.80
2019-02-18T17:45:16.985Z,7.35
2019-02-18T17:47:45.749Z,9.18
2019-02-18T17:50:16.351Z,5.78
2019-02-18T17:52:45.737Z,9.20
2019-02-18T17:55:16.523Z,7.20
2019-02-18T17:57:45.269Z,7.93
2019-02-18T18:00:26.099Z,7.62
2019-02-18T18:02:55.156Z,10.28
2019-02-18T18:05:24.161Z,12.03
2019-02-18T18:07:52.923Z,9.63
2019-02-18T18:10:22.163Z,9.08
2019-02-18T18:12:52.012Z,15.00
2019-02-18T18:15:21.053Z,12.80
2019-02-18T18:17:49.906Z,15.38
2019-02-18T18:20:18.645Z,11.48
2019-02-18T18:22:47.405Z,10.23
2019-02-18T18:25:16.556Z,9.75
2019-02-18T18:27:45.363Z,11.20
2019-02-18T18:30:16.969Z,13.98
2019-02-18T18:32:45.801Z,16.12
2019-02-18T18:35:14.794Z,16.60
2019-02-18T18:37:43.554Z,15.68
2019-02-18T18:40:14.185Z,21.90
2019-02-18T18:42:43.026Z,18.17
2019-02-18T18:45:15.646Z,15.23
2019-02-18T18:47:44.662Z,23.45
2019-02-18T18:50:19.036Z,16.32
2019-02-18T18:52:48.444Z,15.40
2019-02-18T18:55:17.545Z,15.78
2019-02-18T18:57:46.858Z,14.98
2019-02-18T19:00:22.938Z,18.07
2019-02-18T19:02:52.040Z,15.95
2019-02-18T19:05:21.588Z,16.75
2019-02-18T19:07:50.659Z,16.40
2019-02-18T19:10:19.799Z,13.20
2019-02-18T19:12:48.762Z,12.25
2019-02-18T19:15:20.921Z,15.83
2019-02-18T19:17:50.234Z,18.07
2019-02-18T19:20:19.112Z,14.38
2019-02-18T19:22:48.118Z,12.20
2019-02-18T19:25:21.001Z,16.07
2019-02-18T19:27:49.890Z,14.15
2019-02-18T19:30:41.320Z,14.50
2019-02-18T19:33:18.594Z,12.80
2019-02-18T19:35:56.145Z,12.80
2019-02-18T19:38:25.490Z,9.78
2019-02-18T19:40:54.482Z,15.43
2019-02-18T19:43:23.468Z,15.45
2019-02-18T19:45:52.468Z,14.28
2019-02-18T19:48:21.322Z,14.90
2019-02-18T19:50:50.472Z,11.48
2019-02-18T19:53:20.879Z,12.80
2019-02-18T19:55:49.984Z,12.00
2019-02-18T19:58:19.652Z,10.18
2019-02-18T20:00:50.187Z,13.65
2019-02-18T20:03:19.409Z,13.80
2019-02-18T20:05:48.715Z,15.00
2019-02-18T20:08:20.888Z,16.40
2019-02-18T20:10:50.107Z,15.08
2019-02-18T20:13:22.752Z,16.52
2019-02-18T20:15:51.479Z,17.30
2019-02-18T20:18:20.737Z,17.65
2019-02-18T20:20:49.541Z,17.60
2019-02-18T20:23:18.797Z,19.03
2019-02-18T20:28:23.601Z,18.70
2019-02-18T20:30:52.333Z,21.50
2019-02-18T20:33:21.181Z,17.27
2019-02-18T20:35:50.208Z,17.30
2019-02-18T20:38:19.045Z,19.20
2019-02-18T20:40:47.786Z,17.62
2019-02-18T20:43:16.561Z,17.10
2019-02-18T20:45:45.315Z,19.95
2019-02-18T20:48:14.148Z,15.87
2019-02-18T20:50:45.641Z,16.45
2019-02-18T20:53:14.445Z,17.00
2019-02-18T20:55:43.185Z,19.93
2019-02-18T20:58:12.028Z,17.80
2019-02-18T21:00:40.761Z,14.47
2019-02-18T21:03:09.533Z,17.12
2019-02-18T21:05:38.543Z,17.42
2019-02-18T21:08:07.305Z,16.75
2019-02-18T21:10:36.074Z,18.02
2019-02-18T21:13:05.117Z,15.43
2019-02-18T21:15:34.733Z,17.67
2019-02-18T21:18:03.543Z,17.87
2019-02-18T21:20:32.665Z,15.48
2019-02-18T21:23:01.397Z,15.30
2019-02-18T21:25:30.174Z,12.65
2019-02-18T21:28:03.514Z,16.12
2019-02-18T21:30:32.072Z,12.85
2019-02-18T21:33:00.885Z,10.30
2019-02-18T21:35:29.640Z,8.80
2019-02-18T21:37:58.470Z,9.10
2019-02-18T21:40:27.199Z,9.88
2019-02-18T21:42:55.924Z,8.98
2019-02-18T21:45:24.685Z,9.18
2019-02-18T21:47:53.409Z,8.03
2019-02-18T21:50:22.581Z,9.53
2019-02-18T21:52:51.388Z,10.65
2019-02-18T21:55:20.140Z,8.98
2019-02-18T21:57:48.868Z,8.20
2019-02-18T22:00:22.827Z,6.12
2019-02-18T22:02:51.635Z,7.08
2019-02-18T22:05:20.461Z,6.30
2019-02-18T22:07:49.195Z,6.95
2019-02-18T22:10:17.945Z,6.35
2019-02-18T22:12:46.789Z,8.30
2019-02-18T22:15:15.945Z,6.53
2019-02-18T22:17:44.944Z,8.00
2019-02-18T22:20:14.601Z,7.28
2019-02-18T22:22:43.430Z,7.90
2019-02-18T22:25:13.065Z,9.23
2019-02-18T22:27:42.949Z,7.58
2019-02-18T22:30:15.673Z,6.53
2019-02-18T22:32:44.537Z,8.90
2019-02-18T22:35:13.864Z,6.60
2019-02-18T22:37:42.621Z,7.78
2019-02-18T22:40:12.869Z,6.22
2019-02-18T22:42:41.629Z,7.70
2019-02-18T22:45:13.656Z,7.50
2019-02-18T22:47:42.418Z,7.85
2019-02-18T22:50:12.322Z,8.75
2019-02-18T22:52:41.080Z,8.10
2019-02-18T22:55:10.925Z,7.03
2019-02-18T22:57:39.683Z,6.85
2019-02-18T23:00:25.099Z,7.30
2019-02-18T23:02:54.348Z,7.58
2019-02-18T23:05:23.154Z,8.15
2019-02-18T23:07:51.977Z,8.63
2019-02-18T23:10:20.823Z,7.08
2019-02-18T23:12:49.522Z,6.37
2019-02-18T23:15:18.284Z,7.13
2019-02-18T23:17:47.047Z,9.33
2019-02-18T23:20:16.212Z,6.72
2019-02-18T23:22:44.942Z,7.78
2019-02-18T23:25:13.714Z,6.87
2019-02-18T23:27:42.504Z,7.37
2019-02-18T23:30:11.289Z,7.20
2019-02-18T23:32:40.018Z,7.53
2019-02-18T23:35:08.969Z,8.58
2019-02-18T23:37:37.697Z,7.60
2019-02-18T23:40:06.579Z,7.40
2019-02-18T23:42:35.692Z,7.10
2019-02-18T23:45:04.722Z,7.80
2019-02-18T23:47:33.456Z,6.53
2019-02-18T23:50:02.213Z,8.80
2019-02-18T23:52:30.944Z,7.60
2019-02-18T23:54:59.697Z,7.28
2019-02-18T23:57:28.729Z,8.18
2019-02-18T23:59:57.529Z,6.80
